sensor_id;sensor_type;location;lat;lon;timestamp;P1;durP1;ratioP1;P2;durP2;ratioP2
62030;SDS011;62035;52.094;5.112;2023-09-19T00:00:26;5.93;;;1.45;;
62030;SDS011;62035;52.094;5.112;2023-09-19T00:02:54;8.48;;;1.85;;
62030;SDS011;62035;52.094;5.112;2023-09-19T00:05:23;10.38;;;2.05;;
62030;SDS011;62035;52.094;5.112;2023-09-19T00:07:53;7.82;;;1.80;;
62030;SDS011;62035;52.094;5.112;2023-09-19T00:10:21;9.77;;;2.05;;
62030;SDS011;62035;52.094;5.112;2023-09-19T00:12:50;10.80;;;2.25;;
62030;SDS011;62035;52.094;5.112;2023-09-19T00:15:20;8.75;;;1.98;;
62030;SDS011;62035;52.094;5.112;2023-09-19T00:17:47;15.40;;;1.90;;
62030;SDS011;62035;52.094;5.112;2023-09-19T00:20:14;8.20;;;1.75;;
62030;SDS011;62035;52.094;5.112;2023-09-19T00:22:43;7.13;;;1.80;;
62030;SDS011;62035;52.094;5.112;2023-09-19T00:25:10;11.77;;;1.70;;
62030;SDS011;62035;52.094;5.112;2023-09-19T00:27:41;11.90;;;1.80;;
62030;SDS011;62035;52.094;5.112;2023-09-19T00:30:11;10.40;;;1.60;;
62030;SDS011;62035;52.094;5.112;2023-09-19T00:32:43;8.65;;;1.70;;
62030;SDS011;62035;52.094;5.112;2023-09-19T00:35:10;6.57;;;1.90;;
62030;SDS011;62035;52.094;5.112;2023-09-19T00:37:37;5.90;;;1.60;;
62030;SDS011;62035;52.094;5.112;2023-09-19T00:40:06;7.18;;;1.88;;
62030;SDS011;62035;52.094;5.112;2023-09-19T00:42:38;7.80;;;1.80;;
62030;SDS011;62035;52.094;5.112;2023-09-19T00:45:06;7.07;;;1.70;;
62030;SDS011;62035;52.094;5.112;2023-09-19T00:47:37;8.43;;;1.70;;
62030;SDS011;62035;52.094;5.112;2023-09-19T00:50:06;14.85;;;1.80;;
62030;SDS011;62035;52.094;5.112;2023-09-19T00:52:36;10.27;;;1.75;;
62030;SDS011;62035;52.094;5.112;2023-09-19T00:55:05;11.27;;;1.80;;
62030;SDS011;62035;52.094;5.112;2023-09-19T00:57:33;9.70;;;1.90;;
62030;SDS011;62035;52.094;5.112;2023-09-19T01:00:01;10.63;;;1.80;;
62030;SDS011;62035;52.094;5.112;2023-09-19T01:02:32;5.35;;;1.50;;
62030;SDS011;62035;52.094;5.112;2023-09-19T01:05:00;6.35;;;1.70;;
62030;SDS011;62035;52.094;5.112;2023-09-19T01:07:31;6.43;;;1.98;;
62030;SDS011;62035;52.094;5.112;2023-09-19T01:09:59;6.97;;;1.83;;
62030;SDS011;62035;52.094;5.112;2023-09-19T01:12:29;15.40;;;2.40;;
62030;SDS011;62035;52.094;5.112;2023-09-19T01:15:01;4.15;;;1.45;;
62030;SDS011;62035;52.094;5.112;2023-09-19T01:17:40;13.73;;;2.00;;
62030;SDS011;62035;52.094;5.112;2023-09-19T01:20:17;9.75;;;1.60;;
62030;SDS011;62035;52.094;5.112;2023-09-19T01:22:56;9.77;;;1.70;;
62030;SDS011;62035;52.094;5.112;2023-09-19T01:28:34;5.15;;;1.55;;
62030;SDS011;62035;52.094;5.112;2023-09-19T01:31:14;6.55;;;1.58;;
62030;SDS011;62035;52.094;5.112;2023-09-19T01:33:55;11.27;;;1.50;;
62030;SDS011;62035;52.094;5.112;2023-09-19T01:36:25;8.52;;;1.83;;
62030;SDS011;62035;52.094;5.112;2023-09-19T01:38:54;11.75;;;1.88;;
62030;SDS011;62035;52.094;5.112;2023-09-19T01:41:26;10.23;;;2.10;;
62030;SDS011;62035;52.094;5.112;2023-09-19T01:44:06;9.97;;;1.90;;
62030;SDS011;62035;52.094;5.112;2023-09-19T01:46:41;5.45;;;1.50;;
62030;SDS011;62035;52.094;5.112;2023-09-19T01:49:13;7.78;;;1.77;;
62030;SDS011;62035;52.094;5.112;2023-09-19T01:51:51;9.18;;;2.17;;
62030;SDS011;62035;52.094;5.112;2023-09-19T01:54:26;12.48;;;2.90;;
62030;SDS011;62035;52.094;5.112;2023-09-19T01:56:59;12.90;;;2.53;;
62030;SDS011;62035;52.094;5.112;2023-09-19T01:59:34;7.20;;;2.17;;
62030;SDS011;62035;52.094;5.112;2023-09-19T02:02:09;3.85;;;1.50;;
62030;SDS011;62035;52.094;5.112;2023-09-19T02:04:38;10.82;;;1.73;;
62030;SDS011;62035;52.094;5.112;2023-09-19T02:07:05;12.20;;;1.92;;
62030;SDS011;62035;52.094;5.112;2023-09-19T02:09:33;9.68;;;1.90;;
62030;SDS011;62035;52.094;5.112;2023-09-19T02:12:04;10.45;;;2.13;;
62030;SDS011;62035;52.094;5.112;2023-09-19T02:14:32;12.23;;;2.25;;
62030;SDS011;62035;52.094;5.112;2023-09-19T02:17:01;9.48;;;1.70;;
62030;SDS011;62035;52.094;5.112;2023-09-19T02:19:32;8.85;;;2.03;;
62030;SDS011;62035;52.094;5.112;2023-09-19T02:21:59;15.98;;;2.42;;
62030;SDS011;62035;52.094;5.112;2023-09-19T02:24:28;6.57;;;1.95;;
62030;SDS011;62035;52.094;5.112;2023-09-19T02:26:56;10.32;;;2.20;;
62030;SDS011;62035;52.094;5.112;2023-09-19T02:29:25;12.57;;;2.00;;
62030;SDS011;62035;52.094;5.112;2023-09-19T02:31:52;19.13;;;2.78;;
62030;SDS011;62035;52.094;5.112;2023-09-19T02:34:21;11.55;;;2.30;;
62030;SDS011;62035;52.094;5.112;2023-09-19T02:36:52;13.15;;;2.30;;
62030;SDS011;62035;52.094;5.112;2023-09-19T02:39:21;11.43;;;2.47;;
62030;SDS011;62035;52.094;5.112;2023-09-19T02:41:49;9.55;;;2.78;;
62030;SDS011;62035;52.094;5.112;2023-09-19T02:44:16;7.90;;;2.08;;
62030;SDS011;62035;52.094;5.112;2023-09-19T02:46:45;13.65;;;2.40;;
62030;SDS011;62035;52.094;5.112;2023-09-19T02:49:13;11.82;;;2.20;;
62030;SDS011;62035;52.094;5.112;2023-09-19T02:51:40;18.13;;;3.22;;
62030;SDS011;62035;52.094;5.112;2023-09-19T02:54:09;11.77;;;2.25;;
62030;SDS011;62035;52.094;5.112;2023-09-19T02:56:37;10.63;;;1.98;;
62030;SDS011;62035;52.094;5.112;2023-09-19T02:59:04;10.93;;;2.42;;
62030;SDS011;62035;52.094;5.112;2023-09-19T03:01:33;11.77;;;2.25;;
62030;SDS011;62035;52.094;5.112;2023-09-19T03:04:00;13.00;;;2.47;;
62030;SDS011;62035;52.094;5.112;2023-09-19T03:06:28;7.78;;;2.28;;
62030;SDS011;62035;52.094;5.112;2023-09-19T03:08:56;13.60;;;2.67;;
62030;SDS011;62035;52.094;5.112;2023-09-19T03:11:27;15.40;;;2.55;;
62030;SDS011;62035;52.094;5.112;2023-09-19T03:13:54;15.43;;;2.40;;
62030;SDS011;62035;52.094;5.112;2023-09-19T03:16:22;14.88;;;2.42;;
62030;SDS011;62035;52.094;5.112;2023-09-19T03:18:49;12.82;;;2.58;;
62030;SDS011;62035;52.094;5.112;2023-09-19T03:21:16;12.65;;;2.28;;
62030;SDS011;62035;52.094;5.112;2023-09-19T03:23:44;8.10;;;2.83;;
62030;SDS011;62035;52.094;5.112;2023-09-19T03:26:12;10.70;;;2.47;;
62030;SDS011;62035;52.094;5.112;2023-09-19T03:28:43;14.80;;;3.03;;
62030;SDS011;62035;52.094;5.112;2023-09-19T03:31:11;10.90;;;2.35;;
62030;SDS011;62035;52.094;5.112;2023-09-19T03:33:38;12.43;;;2.35;;
62030;SDS011;62035;52.094;5.112;2023-09-19T03:36:06;12.52;;;2.88;;
62030;SDS011;62035;52.094;5.112;2023-09-19T03:38:33;10.00;;;2.20;;
62030;SDS011;62035;52.094;5.112;2023-09-19T03:41:00;14.88;;;2.20;;
62030;SDS011;62035;52.094;5.112;2023-09-19T03:43:28;13.32;;;2.60;;
62030;SDS011;62035;52.094;5.112;2023-09-19T03:45:56;12.85;;;2.80;;
62030;SDS011;62035;52.094;5.112;2023-09-19T03:48:29;12.68;;;2.53;;
62030;SDS011;62035;52.094;5.112;2023-09-19T03:50:56;8.98;;;1.98;;
62030;SDS011;62035;52.094;5.112;2023-09-19T03:53:23;11.43;;;2.38;;
62030;SDS011;62035;52.094;5.112;2023-09-19T03:55:51;13.77;;;2.22;;
62030;SDS011;62035;52.094;5.112;2023-09-19T03:58:18;10.43;;;2.20;;
62030;SDS011;62035;52.094;5.112;2023-09-19T04:00:46;12.02;;;2.03;;
62030;SDS011;62035;52.094;5.112;2023-09-19T04:03:16;12.40;;;2.58;;
62030;SDS011;62035;52.094;5.112;2023-09-19T04:05:46;10.10;;;2.15;;
62030;SDS011;62035;52.094;5.112;2023-09-19T04:08:13;9.65;;;2.30;;
62030;SDS011;62035;52.094;5.112;2023-09-19T04:10:41;13.55;;;2.90;;
62030;SDS011;62035;52.094;5.112;2023-09-19T04:13:10;14.68;;;2.38;;
62030;SDS011;62035;52.094;5.112;2023-09-19T04:15:37;13.70;;;2.45;;
62030;SDS011;62035;52.094;5.112;2023-09-19T04:18:06;9.98;;;2.50;;
62030;SDS011;62035;52.094;5.112;2023-09-19T04:20:34;16.85;;;2.30;;
62030;SDS011;62035;52.094;5.112;2023-09-19T04:23:01;8.20;;;1.90;;
62030;SDS011;62035;52.094;5.112;2023-09-19T04:25:30;13.73;;;2.75;;
62030;SDS011;62035;52.094;5.112;2023-09-19T04:27:57;12.98;;;2.30;;
62030;SDS011;62035;52.094;5.112;2023-09-19T04:30:24;10.52;;;2.13;;
62030;SDS011;62035;52.094;5.112;2023-09-19T04:32:52;13.07;;;2.28;;
62030;SDS011;62035;52.094;5.112;2023-09-19T04:35:19;8.75;;;2.45;;
62030;SDS011;62035;52.094;5.112;2023-09-19T04:37:48;9.30;;;2.03;;
62030;SDS011;62035;52.094;5.112;2023-09-19T04:40:18;12.77;;;2.40;;
62030;SDS011;62035;52.094;5.112;2023-09-19T04:42:45;13.18;;;1.98;;
62030;SDS011;62035;52.094;5.112;2023-09-19T04:45:22;12.68;;;2.22;;
62030;SDS011;62035;52.094;5.112;2023-09-19T04:47:49;13.95;;;2.30;;
62030;SDS011;62035;52.094;5.112;2023-09-19T04:50:16;15.48;;;2.55;;
62030;SDS011;62035;52.094;5.112;2023-09-19T04:52:44;12.88;;;2.47;;
62030;SDS011;62035;52.094;5.112;2023-09-19T04:55:18;12.55;;;2.55;;
62030;SDS011;62035;52.094;5.112;2023-09-19T04:57:45;12.57;;;2.63;;
62030;SDS011;62035;52.094;5.112;2023-09-19T05:00:13;12.45;;;2.50;;
62030;SDS011;62035;52.094;5.112;2023-09-19T05:02:42;13.75;;;2.60;;
62030;SDS011;62035;52.094;5.112;2023-09-19T05:05:10;10.23;;;2.38;;
62030;SDS011;62035;52.094;5.112;2023-09-19T05:07:38;13.38;;;2.50;;
62030;SDS011;62035;52.094;5.112;2023-09-19T05:10:07;12.35;;;2.28;;
62030;SDS011;62035;52.094;5.112;2023-09-19T05:12:37;10.57;;;2.53;;
62030;SDS011;62035;52.094;5.112;2023-09-19T05:15:04;11.50;;;2.75;;
62030;SDS011;62035;52.094;5.112;2023-09-19T05:17:33;8.73;;;2.28;;
62030;SDS011;62035;52.094;5.112;2023-09-19T05:20:01;14.75;;;2.30;;
62030;SDS011;62035;52.094;5.112;2023-09-19T05:22:32;10.65;;;2.40;;
62030;SDS011;62035;52.094;5.112;2023-09-19T05:24:59;11.23;;;2.33;;
62030;SDS011;62035;52.094;5.112;2023-09-19T05:27:30;7.45;;;1.95;;
62030;SDS011;62035;52.094;5.112;2023-09-19T05:29:58;10.43;;;2.20;;
62030;SDS011;62035;52.094;5.112;2023-09-19T05:32:26;12.93;;;3.00;;
62030;SDS011;62035;52.094;5.112;2023-09-19T05:34:53;10.98;;;2.38;;
62030;SDS011;62035;52.094;5.112;2023-09-19T05:37:22;17.23;;;2.83;;
62030;SDS011;62035;52.094;5.112;2023-09-19T05:39:52;15.57;;;2.88;;
62030;SDS011;62035;52.094;5.112;2023-09-19T05:42:19;9.73;;;2.47;;
62030;SDS011;62035;52.094;5.112;2023-09-19T05:44:47;12.23;;;2.58;;
62030;SDS011;62035;52.094;5.112;2023-09-19T05:47:15;9.60;;;2.42;;
62030;SDS011;62035;52.094;5.112;2023-09-19T05:49:42;14.15;;;2.38;;
62030;SDS011;62035;52.094;5.112;2023-09-19T05:52:09;12.05;;;2.60;;
62030;SDS011;62035;52.094;5.112;2023-09-19T05:54:37;15.80;;;2.97;;
62030;SDS011;62035;52.094;5.112;2023-09-19T05:57:04;18.42;;;2.30;;
62030;SDS011;62035;52.094;5.112;2023-09-19T05:59:33;12.88;;;2.80;;
62030;SDS011;62035;52.094;5.112;2023-09-19T06:02:01;13.30;;;2.35;;
62030;SDS011;62035;52.094;5.112;2023-09-19T06:04:32;16.00;;;2.97;;
62030;SDS011;62035;52.094;5.112;2023-09-19T06:06:59;15.05;;;3.33;;
62030;SDS011;62035;52.094;5.112;2023-09-19T06:09:27;14.57;;;2.45;;
62030;SDS011;62035;52.094;5.112;2023-09-19T06:11:54;9.73;;;2.67;;
62030;SDS011;62035;52.094;5.112;2023-09-19T06:14:23;9.88;;;2.22;;
62030;SDS011;62035;52.094;5.112;2023-09-19T06:16:50;12.50;;;2.53;;
62030;SDS011;62035;52.094;5.112;2023-09-19T06:19:19;9.52;;;2.80;;
62030;SDS011;62035;52.094;5.112;2023-09-19T06:21:49;12.77;;;2.90;;
62030;SDS011;62035;52.094;5.112;2023-09-19T06:24:16;15.75;;;2.90;;
62030;SDS011;62035;52.094;5.112;2023-09-19T06:26:45;15.55;;;2.83;;
62030;SDS011;62035;52.094;5.112;2023-09-19T06:29:13;15.05;;;2.67;;
62030;SDS011;62035;52.094;5.112;2023-09-19T06:31:40;13.80;;;2.33;;
62030;SDS011;62035;52.094;5.112;2023-09-19T06:34:08;8.00;;;2.13;;
62030;SDS011;62035;52.094;5.112;2023-09-19T06:36:36;20.10;;;3.53;;
62030;SDS011;62035;52.094;5.112;2023-09-19T06:39:05;13.68;;;2.63;;
62030;SDS011;62035;52.094;5.112;2023-09-19T06:41:36;9.63;;;2.10;;
62030;SDS011;62035;52.094;5.112;2023-09-19T06:44:08;15.23;;;3.03;;
62030;SDS011;62035;52.094;5.112;2023-09-19T06:46:36;16.13;;;2.60;;
62030;SDS011;62035;52.094;5.112;2023-09-19T06:49:06;14.82;;;2.78;;
62030;SDS011;62035;52.094;5.112;2023-09-19T06:51:34;13.93;;;2.63;;
62030;SDS011;62035;52.094;5.112;2023-09-19T06:54:01;11.80;;;3.00;;
62030;SDS011;62035;52.094;5.112;2023-09-19T06:56:32;14.52;;;3.15;;
62030;SDS011;62035;52.094;5.112;2023-09-19T06:58:59;18.27;;;2.83;;
62030;SDS011;62035;52.094;5.112;2023-09-19T07:01:28;13.98;;;2.72;;
62030;SDS011;62035;52.094;5.112;2023-09-19T07:03:57;16.63;;;2.78;;
62030;SDS011;62035;52.094;5.112;2023-09-19T07:06:24;14.45;;;2.78;;
62030;SDS011;62035;52.094;5.112;2023-09-19T07:08:52;20.88;;;3.05;;
62030;SDS011;62035;52.094;5.112;2023-09-19T07:11:19;16.20;;;3.75;;
62030;SDS011;62035;52.094;5.112;2023-09-19T07:13:48;19.00;;;2.90;;
62030;SDS011;62035;52.094;5.112;2023-09-19T07:16:15;12.68;;;3.13;;
62030;SDS011;62035;52.094;5.112;2023-09-19T07:18:52;17.30;;;2.90;;
62030;SDS011;62035;52.094;5.112;2023-09-19T07:21:20;9.07;;;2.65;;
62030;SDS011;62035;52.094;5.112;2023-09-19T07:23:48;12.05;;;2.38;;
62030;SDS011;62035;52.094;5.112;2023-09-19T07:26:15;13.18;;;2.50;;
62030;SDS011;62035;52.094;5.112;2023-09-19T07:28:42;14.60;;;3.22;;
62030;SDS011;62035;52.094;5.112;2023-09-19T07:31:11;17.10;;;2.88;;
62030;SDS011;62035;52.094;5.112;2023-09-19T07:33:40;16.25;;;2.75;;
62030;SDS011;62035;52.094;5.112;2023-09-19T07:36:09;14.02;;;2.47;;
62030;SDS011;62035;52.094;5.112;2023-09-19T07:38:39;15.98;;;2.75;;
62030;SDS011;62035;52.094;5.112;2023-09-19T07:41:07;11.20;;;3.00;;
62030;SDS011;62035;52.094;5.112;2023-09-19T07:43:35;15.63;;;2.60;;
62030;SDS011;62035;52.094;5.112;2023-09-19T07:46:04;15.65;;;3.22;;
62030;SDS011;62035;52.094;5.112;2023-09-19T07:48:34;16.17;;;2.70;;
62030;SDS011;62035;52.094;5.112;2023-09-19T07:51:04;13.57;;;2.70;;
62030;SDS011;62035;52.094;5.112;2023-09-19T07:53:32;11.55;;;3.03;;
62030;SDS011;62035;52.094;5.112;2023-09-19T07:56:04;13.10;;;2.78;;
62030;SDS011;62035;52.094;5.112;2023-09-19T07:58:31;12.88;;;2.60;;
62030;SDS011;62035;52.094;5.112;2023-09-19T08:01:03;18.23;;;3.03;;
62030;SDS011;62035;52.094;5.112;2023-09-19T08:03:32;14.35;;;2.67;;
62030;SDS011;62035;52.094;5.112;2023-09-19T08:06:00;21.08;;;3.78;;
62030;SDS011;62035;52.094;5.112;2023-09-19T08:08:29;20.52;;;3.33;;
62030;SDS011;62035;52.094;5.112;2023-09-19T08:10:56;14.70;;;3.13;;
62030;SDS011;62035;52.094;5.112;2023-09-19T08:13:24;20.83;;;3.40;;
62030;SDS011;62035;52.094;5.112;2023-09-19T08:15:51;16.52;;;3.28;;
62030;SDS011;62035;52.094;5.112;2023-09-19T08:18:19;17.17;;;3.10;;
62030;SDS011;62035;52.094;5.112;2023-09-19T08:20:51;17.52;;;2.83;;
62030;SDS011;62035;52.094;5.112;2023-09-19T08:23:21;14.55;;;3.20;;
62030;SDS011;62035;52.094;5.112;2023-09-19T08:25:48;16.17;;;3.20;;
62030;SDS011;62035;52.094;5.112;2023-09-19T08:28:15;14.25;;;3.00;;
62030;SDS011;62035;52.094;5.112;2023-09-19T08:30:45;21.00;;;4.05;;
62030;SDS011;62035;52.094;5.112;2023-09-19T08:33:12;14.73;;;3.35;;
62030;SDS011;62035;52.094;5.112;2023-09-19T08:35:40;14.57;;;3.30;;
62030;SDS011;62035;52.094;5.112;2023-09-19T08:38:08;16.40;;;2.78;;
62030;SDS011;62035;52.094;5.112;2023-09-19T08:40:38;15.35;;;3.00;;
62030;SDS011;62035;52.094;5.112;2023-09-19T08:43:07;21.92;;;3.13;;
62030;SDS011;62035;52.094;5.112;2023-09-19T08:45:35;16.48;;;3.65;;
62030;SDS011;62035;52.094;5.112;2023-09-19T08:48:07;17.67;;;3.17;;
62030;SDS011;62035;52.094;5.112;2023-09-19T08:50:43;18.80;;;3.28;;
62030;SDS011;62035;52.094;5.112;2023-09-19T08:53:16;12.10;;;3.20;;
62030;SDS011;62035;52.094;5.112;2023-09-19T08:55:51;12.25;;;2.67;;
62030;SDS011;62035;52.094;5.112;2023-09-19T08:58:21;18.67;;;3.25;;
62030;SDS011;62035;52.094;5.112;2023-09-19T09:00:55;16.75;;;3.15;;
62030;SDS011;62035;52.094;5.112;2023-09-19T09:03:27;17.08;;;2.70;;
62030;SDS011;62035;52.094;5.112;2023-09-19T09:05:59;19.05;;;3.53;;
62030;SDS011;62035;52.094;5.112;2023-09-19T09:08:26;16.90;;;3.00;;
62030;SDS011;62035;52.094;5.112;2023-09-19T09:10:58;13.63;;;2.75;;
62030;SDS011;62035;52.094;5.112;2023-09-19T09:13:26;11.82;;;2.83;;
62030;SDS011;62035;52.094;5.112;2023-09-19T09:15:53;26.38;;;3.40;;
62030;SDS011;62035;52.094;5.112;2023-09-19T09:18:21;15.35;;;3.13;;
62030;SDS011;62035;52.094;5.112;2023-09-19T09:20:49;17.30;;;3.67;;
62030;SDS011;62035;52.094;5.112;2023-09-19T09:23:16;16.40;;;3.38;;
62030;SDS011;62035;52.094;5.112;2023-09-19T09:25:46;15.60;;;3.83;;
62030;SDS011;62035;52.094;5.112;2023-09-19T09:28:20;14.65;;;3.03;;
62030;SDS011;62035;52.094;5.112;2023-09-19T09:30:48;17.73;;;3.22;;
62030;SDS011;62035;52.094;5.112;2023-09-19T09:33:16;11.70;;;2.50;;
62030;SDS011;62035;52.094;5.112;2023-09-19T09:35:47;13.63;;;3.10;;
62030;SDS011;62035;52.094;5.112;2023-09-19T09:38:17;15.60;;;2.63;;
62030;SDS011;62035;52.094;5.112;2023-09-19T09:40:46;18.58;;;3.35;;
62030;SDS011;62035;52.094;5.112;2023-09-19T09:43:26;13.20;;;2.38;;
62030;SDS011;62035;52.094;5.112;2023-09-19T09:46:12;15.45;;;2.95;;
62030;SDS011;62035;52.094;5.112;2023-09-19T09:48:59;22.45;;;3.28;;
62030;SDS011;62035;52.094;5.112;2023-09-19T09:51:45;14.93;;;2.80;;
62030;SDS011;62035;52.094;5.112;2023-09-19T09:54:23;18.20;;;3.00;;
62030;SDS011;62035;52.094;5.112;2023-09-19T09:56:56;15.10;;;2.70;;
62030;SDS011;62035;52.094;5.112;2023-09-19T09:59:45;17.88;;;2.95;;
62030;SDS011;62035;52.094;5.112;2023-09-19T10:02:15;15.20;;;2.67;;
62030;SDS011;62035;52.094;5.112;2023-09-19T10:04:49;17.38;;;2.63;;
62030;SDS011;62035;52.094;5.112;2023-09-19T10:07:34;16.67;;;2.90;;
62030;SDS011;62035;52.094;5.112;2023-09-19T10:10:04;10.68;;;2.80;;
62030;SDS011;62035;52.094;5.112;2023-09-19T10:12:44;14.10;;;3.20;;
62030;SDS011;62035;52.094;5.112;2023-09-19T10:15:15;12.63;;;2.78;;
62030;SDS011;62035;52.094;5.112;2023-09-19T10:17:46;17.50;;;2.72;;
62030;SDS011;62035;52.094;5.112;2023-09-19T10:20:14;13.23;;;2.92;;
62030;SDS011;62035;52.094;5.112;2023-09-19T10:23:03;13.45;;;2.60;;
62030;SDS011;62035;52.094;5.112;2023-09-19T10:25:36;14.60;;;2.88;;
62030;SDS011;62035;52.094;5.112;2023-09-19T10:28:05;14.23;;;2.95;;
62030;SDS011;62035;52.094;5.112;2023-09-19T10:30:38;29.27;;;3.20;;
62030;SDS011;62035;52.094;5.112;2023-09-19T10:33:10;10.70;;;2.25;;
62030;SDS011;62035;52.094;5.112;2023-09-19T10:35:38;10.40;;;2.08;;
62030;SDS011;62035;52.094;5.112;2023-09-19T10:38:08;10.65;;;2.10;;
62030;SDS011;62035;52.094;5.112;2023-09-19T10:40:37;12.35;;;2.58;;
62030;SDS011;62035;52.094;5.112;2023-09-19T10:43:11;11.07;;;2.47;;
62030;SDS011;62035;52.094;5.112;2023-09-19T10:45:41;9.05;;;2.33;;
62030;SDS011;62035;52.094;5.112;2023-09-19T10:48:12;13.45;;;2.53;;
62030;SDS011;62035;52.094;5.112;2023-09-19T10:50:43;9.75;;;2.00;;
62030;SDS011;62035;52.094;5.112;2023-09-19T10:53:14;8.68;;;1.98;;
62030;SDS011;62035;52.094;5.112;2023-09-19T10:55:48;10.48;;;2.40;;
62030;SDS011;62035;52.094;5.112;2023-09-19T10:58:24;13.95;;;2.30;;
62030;SDS011;62035;52.094;5.112;2023-09-19T11:00:56;13.38;;;2.25;;
62030;SDS011;62035;52.094;5.112;2023-09-19T11:03:28;11.60;;;2.42;;
62030;SDS011;62035;52.094;5.112;2023-09-19T11:06:03;12.32;;;1.92;;
62030;SDS011;62035;52.094;5.112;2023-09-19T11:08:50;12.95;;;2.22;;
62030;SDS011;62035;52.094;5.112;2023-09-19T11:23:17;12.05;;;2.22;;
62030;SDS011;62035;52.094;5.112;2023-09-19T11:25:44;9.32;;;2.17;;
62030;SDS011;62035;52.094;5.112;2023-09-19T11:30:58;8.55;;;1.98;;
62030;SDS011;62035;52.094;5.112;2023-09-19T11:33:27;8.75;;;2.22;;
62030;SDS011;62035;52.094;5.112;2023-09-19T11:36:00;11.48;;;2.38;;
62030;SDS011;62035;52.094;5.112;2023-09-19T11:41:39;8.40;;;2.10;;
62030;SDS011;62035;52.094;5.112;2023-09-19T11:47:04;14.07;;;2.78;;
62030;SDS011;62035;52.094;5.112;2023-09-19T11:49:34;10.68;;;1.83;;
62030;SDS011;62035;52.094;5.112;2023-09-19T11:52:04;9.45;;;2.13;;
62030;SDS011;62035;52.094;5.112;2023-09-19T11:54:34;10.90;;;2.10;;
62030;SDS011;62035;52.094;5.112;2023-09-19T11:57:05;7.72;;;2.22;;
62030;SDS011;62035;52.094;5.112;2023-09-19T11:59:35;6.78;;;2.03;;
62030;SDS011;62035;52.094;5.112;2023-09-19T12:02:05;9.80;;;1.70;;
62030;SDS011;62035;52.094;5.112;2023-09-19T12:04:36;5.60;;;1.60;;
62030;SDS011;62035;52.094;5.112;2023-09-19T12:07:04;9.98;;;1.55;;
62030;SDS011;62035;52.094;5.112;2023-09-19T12:09:39;11.50;;;1.70;;
62030;SDS011;62035;52.094;5.112;2023-09-19T12:12:10;10.20;;;2.00;;
62030;SDS011;62035;52.094;5.112;2023-09-19T12:14:43;7.93;;;2.10;;
62030;SDS011;62035;52.094;5.112;2023-09-19T12:17:14;10.70;;;2.10;;
62030;SDS011;62035;52.094;5.112;2023-09-19T12:19:50;10.68;;;1.85;;
62030;SDS011;62035;52.094;5.112;2023-09-19T12:22:18;6.10;;;1.83;;
62030;SDS011;62035;52.094;5.112;2023-09-19T12:24:46;5.68;;;1.58;;
62030;SDS011;62035;52.094;5.112;2023-09-19T12:27:13;8.23;;;1.80;;
62030;SDS011;62035;52.094;5.112;2023-09-19T12:29:42;9.43;;;2.28;;
62030;SDS011;62035;52.094;5.112;2023-09-19T12:32:10;11.43;;;2.25;;
62030;SDS011;62035;52.094;5.112;2023-09-19T12:34:38;9.82;;;1.80;;
62030;SDS011;62035;52.094;5.112;2023-09-19T12:37:09;10.70;;;2.53;;
62030;SDS011;62035;52.094;5.112;2023-09-19T12:39:46;11.50;;;2.20;;
62030;SDS011;62035;52.094;5.112;2023-09-19T12:42:16;5.60;;;1.63;;
62030;SDS011;62035;52.094;5.112;2023-09-19T12:44:45;7.68;;;1.58;;
62030;SDS011;62035;52.094;5.112;2023-09-19T12:47:14;12.07;;;2.30;;
62030;SDS011;62035;52.094;5.112;2023-09-19T12:50:04;4.43;;;1.55;;
62030;SDS011;62035;52.094;5.112;2023-09-19T12:52:37;13.63;;;2.10;;
62030;SDS011;62035;52.094;5.112;2023-09-19T12:55:05;6.40;;;2.28;;
62030;SDS011;62035;52.094;5.112;2023-09-19T12:57:35;12.43;;;1.75;;
62030;SDS011;62035;52.094;5.112;2023-09-19T13:00:02;13.63;;;1.70;;
62030;SDS011;62035;52.094;5.112;2023-09-19T13:02:31;6.18;;;1.83;;
62030;SDS011;62035;52.094;5.112;2023-09-19T13:04:58;8.13;;;1.80;;
62030;SDS011;62035;52.094;5.112;2023-09-19T13:07:44;8.05;;;2.20;;
62030;SDS011;62035;52.094;5.112;2023-09-19T13:10:12;13.02;;;1.95;;
62030;SDS011;62035;52.094;5.112;2023-09-19T13:12:42;4.93;;;1.40;;
62030;SDS011;62035;52.094;5.112;2023-09-19T13:15:13;10.75;;;2.03;;
62030;SDS011;62035;52.094;5.112;2023-09-19T13:17:45;6.55;;;2.20;;
62030;SDS011;62035;52.094;5.112;2023-09-19T13:20:23;11.60;;;2.35;;
62030;SDS011;62035;52.094;5.112;2023-09-19T13:23:00;10.20;;;2.10;;
62030;SDS011;62035;52.094;5.112;2023-09-19T13:25:35;8.77;;;1.67;;
62030;SDS011;62035;52.094;5.112;2023-09-19T13:28:05;5.60;;;1.98;;
62030;SDS011;62035;52.094;5.112;2023-09-19T13:30:33;5.88;;;1.55;;
62030;SDS011;62035;52.094;5.112;2023-09-19T13:33:09;5.63;;;1.70;;
62030;SDS011;62035;52.094;5.112;2023-09-19T13:35:37;10.07;;;2.00;;
62030;SDS011;62035;52.094;5.112;2023-09-19T13:38:08;9.88;;;3.38;;
62030;SDS011;62035;52.094;5.112;2023-09-19T13:40:37;9.23;;;1.60;;
62030;SDS011;62035;52.094;5.112;2023-09-19T13:43:07;3.77;;;1.60;;
62030;SDS011;62035;52.094;5.112;2023-09-19T13:45:34;6.07;;;1.88;;
62030;SDS011;62035;52.094;5.112;2023-09-19T13:48:03;6.15;;;1.30;;
62030;SDS011;62035;52.094;5.112;2023-09-19T13:50:31;6.35;;;2.25;;
62030;SDS011;62035;52.094;5.112;2023-09-19T13:52:58;7.03;;;2.42;;
62030;SDS011;62035;52.094;5.112;2023-09-19T13:55:27;7.78;;;2.25;;
62030;SDS011;62035;52.094;5.112;2023-09-19T13:57:54;10.27;;;1.80;;
62030;SDS011;62035;52.094;5.112;2023-09-19T14:00:23;7.90;;;2.20;;
62030;SDS011;62035;52.094;5.112;2023-09-19T14:02:50;10.00;;;1.90;;
62030;SDS011;62035;52.094;5.112;2023-09-19T14:05:18;8.30;;;2.45;;
62030;SDS011;62035;52.094;5.112;2023-09-19T14:07:46;10.70;;;2.22;;
62030;SDS011;62035;52.094;5.112;2023-09-19T14:10:13;9.82;;;2.22;;
62030;SDS011;62035;52.094;5.112;2023-09-19T14:12:42;7.40;;;2.00;;
62030;SDS011;62035;52.094;5.112;2023-09-19T14:15:11;11.43;;;1.95;;
62030;SDS011;62035;52.094;5.112;2023-09-19T14:17:39;6.07;;;1.90;;
62030;SDS011;62035;52.094;5.112;2023-09-19T14:20:08;4.95;;;1.77;;
62030;SDS011;62035;52.094;5.112;2023-09-19T14:22:35;5.95;;;2.20;;
62030;SDS011;62035;52.094;5.112;2023-09-19T14:25:03;7.70;;;2.00;;
62030;SDS011;62035;52.094;5.112;2023-09-19T14:27:31;5.70;;;2.00;;
62030;SDS011;62035;52.094;5.112;2023-09-19T14:30:00;7.32;;;2.17;;
62030;SDS011;62035;52.094;5.112;2023-09-19T14:32:27;6.45;;;2.00;;
62030;SDS011;62035;52.094;5.112;2023-09-19T14:34:54;11.50;;;2.78;;
62030;SDS011;62035;52.094;5.112;2023-09-19T14:37:21;9.75;;;2.38;;
62030;SDS011;62035;52.094;5.112;2023-09-19T14:39:48;10.98;;;2.30;;
62030;SDS011;62035;52.094;5.112;2023-09-19T14:42:16;6.00;;;2.00;;
62030;SDS011;62035;52.094;5.112;2023-09-19T14:44:43;7.97;;;2.38;;
62030;SDS011;62035;52.094;5.112;2023-09-19T14:47:12;10.50;;;2.75;;
62030;SDS011;62035;52.094;5.112;2023-09-19T14:49:39;10.43;;;2.33;;
62030;SDS011;62035;52.094;5.112;2023-09-19T14:52:07;11.73;;;4.00;;
62030;SDS011;62035;52.094;5.112;2023-09-19T14:54:34;8.85;;;2.35;;
62030;SDS011;62035;52.094;5.112;2023-09-19T14:57:03;11.32;;;2.58;;
62030;SDS011;62035;52.094;5.112;2023-09-19T14:59:31;8.43;;;2.60;;
62030;SDS011;62035;52.094;5.112;2023-09-19T15:01:59;13.32;;;2.80;;
62030;SDS011;62035;52.094;5.112;2023-09-19T15:04:28;11.55;;;2.30;;
62030;SDS011;62035;52.094;5.112;2023-09-19T15:06:55;8.32;;;2.22;;
62030;SDS011;62035;52.094;5.112;2023-09-19T15:09:22;11.68;;;2.42;;
62030;SDS011;62035;52.094;5.112;2023-09-19T15:11:51;8.02;;;2.65;;
62030;SDS011;62035;52.094;5.112;2023-09-19T15:14:19;12.73;;;3.05;;
62030;SDS011;62035;52.094;5.112;2023-09-19T15:16:46;8.00;;;2.28;;